Time;durP1;ratioP1;P1;durP2;ratioP2;P2;SDS_P1;SDS_P2;PMS_P1;PMS_P2;Temp;Humidity;BMP_temperature;BMP_pressure;BME280_temperature;BME280_humidity;BME280_pressure;Samples;Min_cycle;Max_cycle;Signal;HPM_P1;HPM_P2
2022/03/11 00:02:08;;;;;;;;;7.00;7.00;;;;;17.00;39.31;101811.31;4895355;29;9146;-75
2022/03/11 00:04:33;;;;;;;;;4.25;4.25;;;;;16.99;39.07;101809.53;4896446;29;8831;-75
2022/03/11 00:07:01;;;;;;;;;3.50;3.50;;;;;16.96;38.78;101798.94;4896040;29;8914;-76
2022/03/11 00:36:22;;;;;;;;;4.00;4.00;;;;;16.93;38.85;101788.38;4913022;29;9937;-75
2022/03/11 01:05:41;;;;;;;;;4.00;4.00;;;;;16.84;38.31;101764.50;4912817;29;9946;-75
2022/03/11 01:35:00;;;;;;;;;4.50;4.50;;;;;16.78;38.02;101719.63;4912463;29;9926;-75
2022/03/11 02:32:57;;;;;;;;;6.00;4.75;;;;;16.71;37.94;101646.59;4915432;29;9896;-74
2022/03/11 03:02:17;;;;;;;;;5.75;5.50;;;;;16.62;37.69;101628.94;4901961;29;10021;-74
2022/03/11 03:24:53;;;;;;;;;4.25;4.25;;;;;16.61;38.11;101613.13;4899320;29;9956;-75
2022/03/11 03:54:17;;;;;;;;;6.00;4.25;;;;;16.56;37.53;101601.59;4913855;29;10004;-74
2022/03/11 04:23:36;;;;;;;;;7.00;6.00;;;;;16.50;37.30;101573.44;4913418;29;9999;-75
2022/03/11 04:46:12;;;;;;;;;7.50;6.50;;;;;16.46;37.18;101560.22;4895283;29;10086;-75
2022/03/11 04:48:39;;;;;;;;;4.50;4.50;;;;;16.50;37.29;101559.34;4914045;29;10147;-76
2022/03/11 04:51:05;;;;;;;;;5.00;5.00;;;;;16.47;37.20;101549.69;4912709;29;8796;-75
2022/03/11 04:53:30;;;;;;;;;5.25;4.00;;;;;16.46;37.39;101549.69;4913866;29;9928;-75
2022/03/11 04:55:58;;;;;;;;;5.00;5.00;;;;;16.44;37.40;101552.28;4913763;29;8825;-75
2022/03/11 04:58:24;;;;;;;;;7.75;5.00;;;;;16.46;37.10;101550.53;4913552;29;8804;-75
2022/03/11 05:00:52;;;;;;;;;6.00;4.75;;;;;16.47;37.13;101547.03;4913931;29;9973;-75
2022/03/11 05:03:17;;;;;;;;;8.00;5.25;;;;;16.44;37.07;101542.63;4913524;29;10040;-75
2022/03/11 05:05:42;;;;;;;;;7.00;6.00;;;;;16.42;37.10;101536.47;4913565;29;10086;-75
2022/03/11 05:08:07;;;;;;;;;4.00;4.00;;;;;16.35;36.96;101533.75;4914230;29;8813;-75
2022/03/11 05:10:36;;;;;;;;;5.50;5.00;;;;;16.43;37.30;101534.72;4914275;29;8809;-74
2022/03/11 05:13:02;;;;;;;;;3.25;3.25;;;;;16.43;37.17;101532.06;4913932;29;8804;-75
2022/03/11 05:15:27;;;;;;;;;6.50;5.50;;;;;16.40;37.08;101534.69;4914476;29;9908;-75
2022/03/11 05:17:53;;;;;;;;;4.75;4.25;;;;;16.44;37.09;101541.75;4913878;29;8827;-75
2022/03/11 05:20:18;;;;;;;;;0.00;0.00;;;;;16.42;37.06;101541.72;4914085;29;8917;-75
2022/03/11 05:22:44;;;;;;;;;6.25;5.25;;;;;16.41;37.05;101539.09;4914382;29;9541;-75
2022/03/11 05:25:10;;;;;;;;;4.50;4.00;;;;;16.43;37.26;101545.25;4912975;29;8867;-75
2022/03/11 05:27:37;;;;;;;;;4.50;4.50;;;;;16.38;37.05;101541.72;4913645;29;9855;-75
2022/03/11 05:30:06;;;;;;;;;4.25;4.25;;;;;16.44;37.21;101545.28;4913456;29;10016;-75
2022/03/11 05:32:32;;;;;;;;;7.75;5.25;;;;;16.43;37.10;101542.63;4913156;29;9671;-74
2022/03/11 05:34:57;;;;;;;;;7.00;5.75;;;;;16.42;37.17;101539.09;4913022;29;9724;-75
2022/03/11 05:37:28;;;;;;;;;4.75;4.75;;;;;16.41;36.96;101534.72;4913028;29;8955;-75
2022/03/11 05:39:53;;;;;;;;;7.00;5.00;;;;;16.40;36.90;101530.31;4910722;29;8879;-76
2022/03/11 05:42:18;;;;;;;;;3.00;2.00;;;;;16.39;36.65;101533.78;4894402;29;9753;-75
2022/03/11 05:44:44;;;;;;;;;8.75;7.50;;;;;16.43;37.27;101537.34;4894938;29;8813;-75
2022/03/11 05:47:09;;;;;;;;;5.25;4.00;;;;;16.41;36.83;101539.09;4894212;29;8835;-76
2022/03/11 05:49:34;;;;;;;;;8.25;8.00;;;;;16.41;37.17;101539.09;4894381;29;8803;-76
2022/03/11 05:52:05;;;;;;;;;6.50;6.50;;;;;16.38;37.04;101534.66;4894490;29;8795;-76
2022/03/11 05:54:31;;;;;;;;;4.00;4.00;;;;;16.34;36.97;101535.53;4894067;29;8838;-76
2022/03/11 05:56:56;;;;;;;;;4.75;3.25;;;;;16.36;36.95;101528.50;4893945;29;10654;-75
2022/03/11 05:59:22;;;;;;;;;4.25;3.50;;;;;16.39;36.97;101528.53;4894616;29;8808;-76
2022/03/11 06:01:47;;;;;;;;;3.00;3.00;;;;;16.40;37.00;101525.03;4894478;29;8811;-75
2022/03/11 06:04:12;;;;;;;;;5.00;5.00;;;;;16.39;36.51;101522.38;4894041;29;8807;-75
2022/03/11 06:06:37;;;;;;;;;5.00;3.25;;;;;16.42;37.07;101522.44;4895039;29;8878;-75
2022/03/11 06:09:08;;;;;;;;;5.50;5.50;;;;;16.36;36.99;101523.22;4894461;29;8806;-75
2022/03/11 06:11:34;;;;;;;;;4.50;4.50;;;;;16.37;36.90;101518.84;4894981;29;8772;-75
2022/03/11 06:14:02;;;;;;;;;5.25;5.00;;;;;16.32;36.88;101521.44;4893940;29;9848;-75
2022/03/11 06:16:27;;;;;;;;;7.25;4.00;;;;;16.31;36.56;101513.50;4894802;29;8787;-75
2022/03/11 06:18:53;;;;;;;;;4.00;3.00;;;;;16.35;36.70;101513.56;4894721;29;10149;-75
2022/03/11 06:21:18;;;;;;;;;4.00;3.75;;;;;16.34;36.61;101514.44;4894442;29;8784;-75
2022/03/11 06:23:43;;;;;;;;;3.00;3.00;;;;;16.34;36.75;101516.19;4894828;29;8842;-75
2022/03/11 06:26:09;;;;;;;;;3.00;3.00;;;;;16.36;37.06;101520.59;4894744;29;8932;-75
2022/03/11 06:28:34;;;;;;;;;5.00;4.00;;;;;16.40;36.85;101525.03;4894531;29;8799;-74
2022/03/11 06:31:00;;;;;;;;;4.00;4.00;;;;;16.35;36.69;101523.22;4894558;29;8854;-75
2022/03/11 06:33:25;;;;;;;;;4.00;4.00;;;;;16.32;36.91;101516.16;4894838;29;8799;-75
2022/03/11 06:35:51;;;;;;;;;4.50;4.00;;;;;16.33;36.95;101525.84;4894287;29;8843;-75
2022/03/11 06:38:16;;;;;;;;;4.00;4.00;;;;;16.37;36.68;101518.84;4894867;29;8803;-75
2022/03/11 06:40:42;;;;;;;;;4.25;4.25;;;;;16.41;36.65;101520.66;4896189;29;9555;-75
2022/03/11 06:43:07;;;;;;;;;4.00;4.00;;;;;16.41;36.61;101515.38;4894554;29;8913;-76
2022/03/11 06:45:33;;;;;;;;;3.25;3.25;;;;;16.44;36.58;101515.41;4894647;29;8795;-76
2022/03/11 06:47:58;;;;;;;;;4.00;4.00;;;;;16.47;36.60;101515.41;4894775;29;9668;-76
2022/03/11 06:50:24;;;;;;;;;8.50;5.00;;;;;16.47;36.25;101514.53;4896333;29;8926;-76
2022/03/11 06:52:49;;;;;;;;;4.00;3.50;;;;;16.50;36.50;101507.53;4898197;29;8830;-77
2022/03/11 06:55:18;;;;;;;;;4.50;4.50;;;;;16.49;36.41;101504.91;4897778;29;9326;-77
2022/03/11 06:57:44;;;;;;;;;4.25;4.25;;;;;16.52;36.64;101505.81;4897478;29;8914;-77
2022/03/11 07:00:11;;;;;;;;;3.75;3.75;;;;;16.54;36.20;101509.31;4896820;29;9845;-76
2022/03/11 07:02:37;;;;;;;;;4.00;3.25;;;;;16.54;36.20;101503.16;4897700;29;9917;-76
2022/03/11 07:05:03;;;;;;;;;3.75;3.00;;;;;16.57;36.51;101493.56;4896873;29;9882;-78
2022/03/11 07:07:30;;;;;;;;;7.75;7.75;;;;;16.63;36.50;101500.63;4897195;29;11630;-78
2022/03/11 07:09:56;;;;;;;;;3.25;3.25;;;;;16.74;38.19;101496.31;4896994;29;10070;-80
2022/03/11 07:12:21;;;;;;;;;4.00;4.00;;;;;16.90;41.02;101491.16;4897121;29;10176;-77
2022/03/11 07:14:48;;;;;;;;;6.00;3.75;;;;;17.04;43.62;101491.25;4896803;29;8806;-78
2022/03/11 07:17:14;;;;;;;;;6.00;6.00;;;;;17.14;46.12;101481.59;4896401;29;8925;-74
2022/03/11 07:19:39;;;;;;;;;4.00;4.00;;;;;17.23;48.26;101490.47;4897116;29;9916;-77
2022/03/11 07:22:05;;;;;;;;;7.25;5.00;;;;;17.28;50.57;101487.84;4896544;29;8811;-74
2022/03/11 07:24:30;;;;;;;;;3.25;3.25;;;;;17.36;51.62;101481.69;4896336;29;8839;-74
2022/03/11 07:26:56;;;;;;;;;7.75;5.00;;;;;17.37;53.25;101482.59;4896880;29;8803;-75
2022/03/11 07:29:21;;;;;;;;;11.00;4.00;;;;;17.34;53.21;101487.88;4896983;29;8822;-75
2022/03/11 07:31:47;;;;;;;;;8.00;5.00;;;;;17.35;54.74;101490.53;4896793;29;8845;-76
2022/03/11 07:34:18;;;;;;;;;5.75;5.00;;;;;17.32;55.02;101493.13;4896869;29;8941;-79
2022/03/11 07:36:44;;;;;;;;;7.25;5.50;;;;;17.29;54.03;101493.13;4897138;29;8839;-78
2022/03/11 07:39:12;;;;;;;;;7.50;5.00;;;;;17.26;53.87;101494.88;4895990;29;10179;-79
2022/03/11 07:41:37;;;;;;;;;6.50;6.50;;;;;17.22;55.17;101491.31;4896655;29;9020;-77
2022/03/11 07:44:04;;;;;;;;;5.00;5.00;;;;;17.21;54.60;101491.31;4896152;29;10094;-79
2022/03/11 07:46:30;;;;;;;;;5.00;4.00;;;;;17.20;54.54;101482.53;4896453;29;8819;-79
2022/03/11 07:48:55;;;;;;;;;5.50;5.50;;;;;17.16;53.51;101475.47;4896235;29;9934;-79
2022/03/11 07:51:21;;;;;;;;;5.00;5.00;;;;;17.15;53.96;101465.78;4896731;29;8798;-79
2022/03/11 07:54:06;;;;;;;;;7.00;5.00;;;;;17.13;53.57;101477.22;4896196;29;8787;-79
2022/03/11 07:56:32;;;;;;;;;10.00;5.00;;;;;17.11;52.96;101476.31;4895539;29;8891;-78
2022/03/11 07:58:57;;;;;;;;;4.00;3.00;;;;;17.10;52.68;101478.06;4896189;29;9941;-79
2022/03/11 08:01:23;;;;;;;;;3.00;3.00;;;;;17.08;52.75;101469.28;4895587;29;8818;-79
2022/03/11 08:03:54;;;;;;;;;3.25;2.25;;;;;17.08;52.64;101471.03;4896196;29;9614;-78
2022/03/11 08:06:20;;;;;;;;;8.00;7.00;;;;;17.07;52.57;101475.41;4895982;29;10057;-79
2022/03/11 08:08:45;;;;;;;;;4.00;4.00;;;;;17.06;52.03;101463.09;4896707;29;10042;-79
2022/03/11 08:11:11;;;;;;;;;9.50;5.75;;;;;17.08;52.20;101461.38;4896067;29;8807;-80
2022/03/11 08:13:37;;;;;;;;;3.00;3.00;;;;;17.03;51.42;101452.53;4896672;29;8792;-79
2022/03/11 08:16:03;;;;;;;;;4.75;4.75;;;;;17.07;51.82;101459.59;4896458;29;9891;-79
2022/03/11 08:18:28;;;;;;;;;4.75;4.25;;;;;17.09;51.12;101454.34;4896385;29;8790;-78
2022/03/11 08:20:56;;;;;;;;;4.75;4.75;;;;;17.05;51.63;101456.06;4896149;29;8929;-80
2022/03/11 08:23:22;;;;;;;;;7.00;5.75;;;;;17.05;51.50;101449.91;4896028;29;8803;-79
2022/03/11 08:25:47;;;;;;;;;5.00;5.00;;;;;17.06;51.17;101443.78;4896063;29;10004;-80
2022/03/11 08:55:10;;;;;;;;;7.50;4.50;;;;;17.09;49.42;101438.50;4913196;29;9909;-81
2022/03/11 09:24:29;;;;;;;;;4.75;4.75;;;;;17.19;47.84;101395.44;4901434;29;9944;-82
2022/03/11 09:47:06;;;;;;;;;5.50;4.50;;;;;17.28;46.32;101379.66;4912289;29;9883;-80
2022/03/11 09:49:35;;;;;;;;;3.75;3.00;;;;;17.28;46.70;101379.66;4914141;29;9999;-80
2022/03/11 09:52:02;;;;;;;;;1.00;0.00;;;;;17.27;46.15;101375.22;4913142;29;9786;-80
2022/03/11 09:54:27;;;;;;;;;7.25;3.00;;;;;17.28;46.26;101371.72;4913717;29;9849;-81
2022/03/11 09:56:53;;;;;;;;;5.75;5.75;;;;;17.30;45.85;101372.59;4913926;29;9907;-81
2022/03/11 09:59:18;;;;;;;;;8.25;5.75;;;;;17.28;46.28;101366.44;4913664;29;8801;-81
2022/03/11 10:01:44;;;;;;;;;5.00;3.75;;;;;17.30;45.71;101367.31;4913664;29;8920;-82
2022/03/11 10:31:32;;;;;;;;;7.00;5.00;;;;;17.36;45.19;101349.72;4916343;29;9725;-82
2022/03/11 10:54:27;;;;;;;;;4.50;4.00;;;;;17.43;45.31;101323.38;4916565;29;10475;-82
2022/03/11 11:48:45;;;;;;;;;8.75;8.25;;;;;17.53;44.39;101244.16;4914569;29;9933;-82
2022/03/11 12:18:05;;;;;;;;;4.50;4.50;;;;;17.60;44.19;101193.16;4915730;29;10011;-81
2022/03/11 13:15:01;;;;;;;;;9.00;5.00;;;;;17.97;43.60;101121.72;4855814;29;9906;-74
2022/03/11 13:44:33;;;;;;;;;12.00;9.50;;;;;18.42;51.10;101107.38;4894624;29;10077;-78
2022/03/11 14:14:27;;;;;;;;;33.75;31.75;;;;;17.26;37.22;101101.66;4916719;29;8971;-77
2022/03/11 15:01:31;;;;;;;;;29.75;29.75;;;;;18.13;39.58;101062.63;4908168;29;8951;-87
2022/03/11 15:03:56;;;;;;;;;31.75;25.25;;;;;18.13;39.58;101062.63;4900215;29;8916;-87
2022/03/11 15:06:22;;;;;;;;;22.00;21.00;;;;;18.12;39.76;101066.16;4898256;29;8981;-87
2022/03/11 15:08:47;;;;;;;;;21.50;20.75;;;;;18.10;40.14;101062.66;4902831;29;8823;-86
2022/03/11 15:11:13;;;;;;;;;22.75;16.25;;;;;18.11;39.81;101064.44;4909176;29;8839;-86
2022/03/11 15:13:39;;;;;;;;;19.00;18.50;;;;;18.09;40.00;101058.25;4899120;29;8818;-86
2022/03/11 15:16:04;;;;;;;;;22.75;18.50;;;;;18.09;40.35;101055.63;4897555;29;10651;-86
2022/03/11 15:18:31;;;;;;;;;20.25;19.00;;;;;18.09;40.37;101055.63;4896839;29;9551;-87
2022/03/11 15:20:58;;;;;;;;;20.50;20.50;;;;;18.08;40.12;101048.56;4897257;29;8809;-86
2022/03/11 15:23:23;;;;;;;;;20.00;20.00;;;;;18.08;40.39;101048.56;4897802;29;11218;-86
2022/03/11 15:25:50;;;;;;;;;18.00;17.75;;;;;18.06;40.65;101048.59;4898645;29;10435;-85
2022/03/11 15:28:16;;;;;;;;;22.00;19.50;;;;;18.05;40.18;101051.22;4898843;29;8818;-86
2022/03/11 15:30:42;;;;;;;;;13.50;11.75;;;;;18.05;40.36;101045.94;4899877;29;10275;-86
2022/03/11 15:33:07;;;;;;;;;20.50;19.25;;;;;18.05;40.47;101043.31;4897635;29;8815;-84
2022/03/11 15:35:32;;;;;;;;;20.00;18.25;;;;;18.01;40.32;101039.81;4897516;29;8957;-84
2022/03/11 15:37:58;;;;;;;;;18.75;18.75;;;;;18.02;40.60;101036.28;4899876;29;8829;-83
2022/03/11 15:40:24;;;;;;;;;22.00;20.25;;;;;18.02;40.73;101035.41;4896747;29;8838;-84
2022/03/11 15:42:53;;;;;;;;;22.25;18.50;;;;;17.99;40.48;101027.50;4897108;29;8799;-84
2022/03/11 15:45:23;;;;;;;;;20.75;19.50;;;;;17.99;40.67;101044.22;4896612;29;10584;-85
2022/03/11 15:47:48;;;;;;;;;20.00;19.75;;;;;18.01;40.62;101038.91;4897207;29;10357;-84
2022/03/11 15:50:14;;;;;;;;;22.00;20.50;;;;;18.04;41.04;101037.13;4897630;29;10908;-82
2022/03/11 15:52:39;;;;;;;;;18.75;16.75;;;;;18.05;40.39;101033.63;4910254;29;8842;-85
2022/03/11 15:55:06;;;;;;;;;13.75;12.25;;;;;18.07;40.57;101037.13;4926440;29;8852;-83
2022/03/11 15:57:31;;;;;;;;;17.50;17.50;;;;;18.07;40.26;101030.97;4929697;29;8929;-85
2022/03/11 15:59:57;;;;;;;;;16.75;14.50;;;;;18.11;40.75;101043.28;4931435;29;10440;-83
2022/03/11 16:02:22;;;;;;;;;16.25;14.75;;;;;18.12;40.82;101037.09;4921127;29;8863;-84
2022/03/11 16:04:49;;;;;;;;;15.50;13.50;;;;;18.13;40.71;101046.78;4918388;29;8813;-84
2022/03/11 16:07:14;;;;;;;;;17.50;15.25;;;;;18.13;40.84;101050.31;4917494;29;8982;-85
2022/03/11 16:09:52;;;;;;;;;16.50;16.25;;;;;18.15;40.54;101050.28;4917241;29;10195;-82
2022/03/11 16:12:18;;;;;;;;;17.75;15.25;;;;;18.15;41.04;101051.16;4927379;29;8943;-84
2022/03/11 16:14:44;;;;;;;;;12.25;11.25;;;;;18.14;40.87;101035.34;4905529;29;10353;-85
2022/03/11 16:17:13;;;;;;;;;12.75;12.00;;;;;18.13;41.03;101041.50;4901057;29;10406;-82
2022/03/11 16:19:38;;;;;;;;;11.00;11.00;;;;;18.14;41.23;101045.91;4897207;29;11816;-83
2022/03/11 16:22:04;;;;;;;;;13.25;12.25;;;;;18.13;40.94;101037.09;4899137;29;10205;-84
2022/03/11 16:24:29;;;;;;;;;13.00;12.00;;;;;18.12;41.21;101035.34;4913971;29;8824;-83
2022/03/11 16:26:54;;;;;;;;;16.00;13.00;;;;;18.15;41.29;101051.16;4915954;29;8797;-82
2022/03/11 16:29:20;;;;;;;;;16.75;12.50;;;;;18.14;40.86;101043.25;4914745;29;8804;-83
2022/03/11 16:31:46;;;;;;;;;16.25;15.50;;;;;18.14;41.08;101059.13;4914632;29;8863;-83
2022/03/11 16:34:12;;;;;;;;;16.25;14.00;;;;;18.15;41.04;101061.72;4912966;29;8824;-83
2022/03/11 16:36:39;;;;;;;;;11.75;11.75;;;;;18.14;41.37;101067.06;4910758;29;8847;-83
2022/03/11 16:39:04;;;;;;;;;11.00;10.25;;;;;18.13;41.28;101074.09;4914107;29;10249;-83
2022/03/11 16:41:30;;;;;;;;;15.00;12.50;;;;;18.13;41.45;101074.09;4915180;29;10174;-82
2022/03/11 16:43:55;;;;;;;;;23.25;23.25;;;;;18.15;41.30;101084.63;4899592;29;8858;-83
2022/03/11 16:46:20;;;;;;;;;71.25;58.25;;;;;18.17;41.88;101074.94;4915066;29;8873;-83
2022/03/11 16:48:46;;;;;;;;;49.25;41.50;;;;;18.17;41.80;101078.47;4914234;29;8887;-84
2022/03/11 16:51:11;;;;;;;;;59.00;48.00;;;;;18.20;41.97;101088.16;4913717;29;8839;-84
2022/03/11 16:53:37;;;;;;;;;70.25;56.25;;;;;18.20;42.29;101086.38;4911899;29;8943;-82
2022/03/11 16:56:02;;;;;;;;;76.75;62.50;;;;;18.16;41.98;101084.63;4913433;29;9689;-78
2022/03/11 16:58:27;;;;;;;;;69.75;55.50;;;;;18.13;42.02;101087.31;4914456;29;8828;-82
2022/03/11 17:00:58;;;;;;;;;69.00;54.50;;;;;18.11;42.11;101091.69;4915234;29;8860;-83
2022/03/11 17:03:24;;;;;;;;;70.50;55.75;;;;;18.10;42.12;101100.53;4899836;29;8831;-80
2022/03/11 17:05:49;;;;;;;;;67.00;53.75;;;;;18.08;41.81;101099.66;4895948;29;11797;-81
2022/03/11 17:08:14;;;;;;;;;68.25;54.50;;;;;18.10;41.92;101100.53;4898122;29;9346;-81
2022/03/11 17:10:44;;;;;;;;;70.25;54.50;;;;;18.09;42.15;101105.81;4904893;29;8840;-82
2022/03/11 17:13:09;;;;;;;;;66.00;53.25;;;;;18.09;41.77;101100.53;4914027;29;8808;-82
2022/03/11 17:15:36;;;;;;;;;65.75;52.25;;;;;18.09;42.27;101100.53;4913658;29;11689;-82
2022/03/11 17:18:02;;;;;;;;;65.25;52.50;;;;;18.10;41.47;101107.59;4915077;29;8804;-82
2022/03/11 17:20:27;;;;;;;;;67.00;53.50;;;;;18.08;42.10;101112.88;4917965;29;11636;-82
2022/03/11 17:22:53;;;;;;;;;68.25;54.75;;;;;18.07;42.04;101121.66;4917403;29;11645;-83
2022/03/11 17:25:19;;;;;;;;;63.50;51.25;;;;;18.06;42.20;101119.06;4904445;29;8817;-81
2022/03/11 17:27:44;;;;;;;;;63.50;50.75;;;;;18.05;41.69;101112.88;4913292;29;8795;-82
2022/03/11 17:30:11;;;;;;;;;64.00;51.00;;;;;18.08;41.75;101123.44;4914525;29;11608;-82
2022/03/11 17:32:36;;;;;;;;;57.50;48.50;;;;;18.07;41.85;101126.09;4913496;29;8812;-80
2022/03/11 17:35:02;;;;;;;;;65.00;50.00;;;;;18.06;41.83;101124.34;4912715;29;11663;-80
2022/03/11 17:37:27;;;;;;;;;59.75;49.00;;;;;18.06;41.68;101124.34;4905647;29;8831;-81
2022/03/11 17:39:54;;;;;;;;;60.50;48.50;;;;;18.04;41.89;101126.97;4894568;29;8837;-81
2022/03/11 17:42:19;;;;;;;;;54.75;46.25;;;;;18.06;41.54;101129.63;4899061;29;8820;-79
2022/03/11 17:44:45;;;;;;;;;50.50;43.25;;;;;18.07;41.68;101126.09;4897868;29;11572;-81
2022/03/11 17:47:10;;;;;;;;;54.50;46.25;;;;;18.03;41.83;101127.00;4897667;29;8815;-80
2022/03/11 17:49:36;;;;;;;;;58.75;48.25;;;;;18.01;41.93;101129.63;4894990;29;11656;-80
2022/03/11 17:52:03;;;;;;;;;53.50;45.25;;;;;18.04;41.59;101126.97;4893713;29;8799;-81
2022/03/11 17:54:29;;;;;;;;;47.75;40.50;;;;;18.02;41.63;101134.03;4894717;29;8926;-81
2022/03/11 17:56:54;;;;;;;;;57.50;46.25;;;;;18.04;41.83;101134.00;4894731;29;11579;-81
2022/03/11 17:59:19;;;;;;;;;32.50;28.75;;;;;18.03;41.87;101133.16;4893785;29;8918;-81
2022/03/11 18:01:48;;;;;;;;;53.00;42.75;;;;;18.02;41.38;101135.81;4894598;29;8860;-81
2022/03/11 18:04:13;;;;;;;;;46.00;41.00;;;;;17.99;41.80;101142.00;4894434;29;9539;-81
2022/03/11 18:06:38;;;;;;;;;45.50;40.25;;;;;17.99;41.78;101133.19;4893876;29;11631;-81
2022/03/11 18:09:04;;;;;;;;;49.25;40.00;;;;;17.98;41.79;101142.88;4894242;29;8815;-81
2022/03/11 18:11:30;;;;;;;;;47.00;40.00;;;;;17.99;41.80;101142.00;4894783;29;8806;-81
2022/03/11 18:13:56;;;;;;;;;52.25;42.50;;;;;17.96;41.53;101141.13;4893518;29;11577;-79
2022/03/11 18:16:22;;;;;;;;;42.75;37.25;;;;;17.97;41.86;101143.75;4893853;29;8846;-80
2022/03/11 18:18:47;;;;;;;;;39.75;36.00;;;;;17.97;41.81;101137.56;4894320;29;11625;-80
2022/03/11 18:21:13;;;;;;;;;45.00;37.25;;;;;17.95;41.60;101147.28;4893395;29;8863;-80
2022/03/11 18:23:38;;;;;;;;;42.25;38.00;;;;;17.96;41.32;101143.75;4894517;29;8823;-80
2022/03/11 18:26:03;;;;;;;;;44.75;36.25;;;;;17.95;41.58;101148.16;4894212;29;9660;-81
2022/03/11 18:28:29;;;;;;;;;43.00;37.75;;;;;17.90;41.60;101136.72;4894051;29;8803;-82
2022/03/11 18:30:54;;;;;;;;;36.75;34.50;;;;;17.95;41.62;101145.53;4893760;29;8921;-80
2022/03/11 18:33:19;;;;;;;;;37.00;35.00;;;;;17.95;41.52;101144.63;4894323;29;8823;-82
2022/03/11 18:35:46;;;;;;;;;44.25;37.25;;;;;17.92;41.51;101142.00;4893517;29;9555;-82
2022/03/11 18:38:11;;;;;;;;;39.25;34.00;;;;;17.92;41.74;101140.22;4897037;29;8958;-82
2022/03/11 18:40:37;;;;;;;;;36.00;32.75;;;;;17.93;41.53;101143.75;4894335;29;11318;-82
2022/03/11 18:43:02;;;;;;;;;37.75;33.75;;;;;17.92;41.48;101140.22;4893576;29;8803;-83
2022/03/11 18:45:27;;;;;;;;;32.75;29.75;;;;;17.93;41.56;101141.09;4896165;29;8902;-81
2022/03/11 18:47:53;;;;;;;;;36.00;32.75;;;;;17.91;41.95;101134.97;4898322;29;8854;-82
2022/03/11 18:50:18;;;;;;;;;27.00;24.75;;;;;17.93;41.43;101138.47;4897240;29;8834;-82
2022/03/11 18:52:43;;;;;;;;;33.50;32.00;;;;;17.91;41.50;101138.50;4899965;29;8810;-79
2022/03/11 18:55:09;;;;;;;;;28.50;28.25;;;;;17.88;41.58;101138.50;4900473;29;8831;-83
2022/03/11 18:57:34;;;;;;;;;29.00;26.00;;;;;17.89;41.42;101140.25;4897866;29;8950;-82
2022/03/11 19:00:00;;;;;;;;;34.50;30.25;;;;;17.88;41.18;101131.44;4897400;29;8855;-81
2022/03/11 19:02:25;;;;;;;;;29.25;25.25;;;;;17.88;41.36;101133.22;4896987;29;8827;-81
2022/03/11 19:04:50;;;;;;;;;29.50;28.00;;;;;17.85;41.53;101134.09;4898332;29;8846;-82
2022/03/11 19:07:16;;;;;;;;;33.75;30.00;;;;;17.86;41.47;101134.97;4914256;29;9583;-81
2022/03/11 19:09:42;;;;;;;;;31.00;28.50;;;;;17.84;41.59;101136.75;4916158;29;8825;-81
2022/03/11 19:12:08;;;;;;;;;32.00;31.00;;;;;17.83;41.38;101133.22;4916099;29;8804;-81
2022/03/11 19:14:34;;;;;;;;;29.75;27.25;;;;;17.82;41.34;101141.16;4915511;29;8813;-81
2022/03/11 19:17:02;;;;;;;;;28.25;27.25;;;;;17.83;41.28;101130.59;4915190;29;10699;-82
2022/03/11 19:19:31;;;;;;;;;35.50;30.00;;;;;17.81;41.38;101137.63;4914963;29;10778;-83
2022/03/11 19:21:57;;;;;;;;;23.75;23.75;;;;;17.79;41.46;101135.88;4916199;29;10923;-82
2022/03/11 19:24:23;;;;;;;;;24.75;23.75;;;;;17.81;41.36;101142.03;4915324;29;10836;-82
2022/03/11 19:26:48;;;;;;;;;33.00;28.25;;;;;17.79;41.47;101135.88;4915534;29;10603;-82
2022/03/11 19:29:14;;;;;;;;;24.25;23.50;;;;;17.74;41.32;101130.59;4916866;29;8836;-82
2022/03/11 19:31:44;;;;;;;;;26.75;25.50;;;;;17.75;41.23;101134.13;4921296;29;8808;-80
2022/03/11 19:34:11;;;;;;;;;23.50;22.50;;;;;17.76;40.89;101136.78;4916218;29;8938;-82
2022/03/11 19:36:37;;;;;;;;;27.25;24.75;;;;;17.74;41.31;101132.38;4907746;29;11571;-82
2022/03/11 19:39:05;;;;;;;;;20.00;19.25;;;;;17.76;40.89;101136.78;4897494;29;10955;-82
2022/03/11 19:41:34;;;;;;;;;25.25;23.00;;;;;17.73;41.23;101131.47;4897100;29;11332;-82
2022/03/11 19:44:00;;;;;;;;;26.75;22.00;;;;;17.74;40.73;101141.16;4896208;29;10599;-81
2022/03/11 19:46:25;;;;;;;;;22.75;21.75;;;;;17.73;40.87;101142.03;4896998;29;10725;-82
2022/03/11 19:48:50;;;;;;;;;22.00;21.25;;;;;17.72;40.77;101147.34;4898154;29;8858;-82
2022/03/11 19:51:16;;;;;;;;;20.00;18.25;;;;;17.69;40.74;101142.09;4898044;29;8822;-82
2022/03/11 19:53:41;;;;;;;;;24.00;21.75;;;;;17.72;40.70;101145.59;4897935;29;8791;-83
2022/03/11 19:56:07;;;;;;;;;23.75;22.25;;;;;17.72;40.96;101152.63;4895541;29;8879;-82
2022/03/11 19:58:34;;;;;;;;;23.50;22.00;;;;;17.68;40.90;101142.97;4905530;29;8828;-82
2022/03/11 20:01:01;;;;;;;;;19.50;19.25;;;;;17.68;40.87;101146.50;4916458;29;8836;-81
2022/03/11 20:03:26;;;;;;;;;17.25;15.50;;;;;17.65;40.69;101146.50;4918439;29;10545;-82
2022/03/11 20:05:51;;;;;;;;;25.25;22.00;;;;;17.69;40.71;101147.38;4913763;29;10613;-81
2022/03/11 20:08:17;;;;;;;;;20.00;20.00;;;;;17.64;40.66;101147.38;4913883;29;9568;-81
2022/03/11 20:10:45;;;;;;;;;19.25;18.25;;;;;17.69;40.45;101152.66;4915918;29;8821;-81
2022/03/11 20:13:14;;;;;;;;;24.50;21.50;;;;;17.68;41.02;101153.53;4913978;29;8838;-82
2022/03/11 20:15:41;;;;;;;;;18.75;17.00;;;;;17.64;40.86;101157.06;4914516;29;10546;-81
2022/03/11 20:18:10;;;;;;;;;18.00;18.00;;;;;17.66;40.54;101157.91;4913324;29;10438;-80
2022/03/11 20:20:36;;;;;;;;;19.00;18.00;;;;;17.67;41.11;101157.91;4914938;29;10588;-81
2022/03/11 20:23:02;;;;;;;;;21.50;21.00;;;;;17.65;40.66;101164.97;4915156;29;10499;-81
2022/03/11 20:25:27;;;;;;;;;15.50;14.50;;;;;17.63;40.96;101165.84;4915575;29;8828;-81
2022/03/11 20:27:56;;;;;;;;;22.75;19.75;;;;;17.63;40.49;101165.84;4913004;29;8836;-79
2022/03/11 20:30:21;;;;;;;;;21.25;21.25;;;;;17.61;40.40;101173.78;4918888;29;8813;-81
2022/03/11 20:32:46;;;;;;;;;14.00;12.50;;;;;17.64;40.63;101175.53;4918070;29;10558;-81
2022/03/11 20:35:12;;;;;;;;;19.25;17.75;;;;;17.64;40.79;101181.69;4914510;29;8928;-81
2022/03/11 20:37:41;;;;;;;;;19.50;17.75;;;;;17.66;40.45;101179.03;4905465;29;8982;-81
2022/03/11 20:40:09;;;;;;;;;15.75;15.50;;;;;17.64;40.56;101186.97;4895604;29;8795;-82
2022/03/11 20:42:35;;;;;;;;;15.75;14.25;;;;;17.64;40.47;101191.38;4898884;29;10272;-83
2022/03/11 20:45:00;;;;;;;;;16.50;15.50;;;;;17.64;40.69;101186.97;4897447;29;10350;-82
2022/03/11 20:47:25;;;;;;;;;14.00;11.50;;;;;17.62;40.59;101191.38;4895987;29;8839;-81
2022/03/11 20:49:55;;;;;;;;;19.25;15.75;;;;;17.62;40.46;101201.94;4894549;29;8833;-81
2022/03/11 20:52:21;;;;;;;;;16.00;15.00;;;;;17.65;40.71;101198.44;4899984;29;8803;-82
2022/03/11 20:54:47;;;;;;;;;15.50;15.50;;;;;17.63;41.07;101203.69;4905220;29;10978;-82
2022/03/11 20:57:13;;;;;;;;;14.00;14.00;;;;;17.59;40.52;101209.88;4917634;29;10404;-81
2022/03/11 20:59:38;;;;;;;;;14.25;14.25;;;;;17.59;40.77;101217.78;4900388;29;8810;-82
2022/03/11 21:02:04;;;;;;;;;16.75;16.25;;;;;17.59;40.78;101219.53;4898243;29;11613;-83
2022/03/11 21:04:30;;;;;;;;;18.75;16.25;;;;;17.57;40.55;101218.69;4898489;29;8845;-83
2022/03/11 21:06:55;;;;;;;;;17.25;16.25;;;;;17.56;40.56;101230.97;4897928;29;9562;-82
2022/03/11 21:09:20;;;;;;;;;14.75;12.00;;;;;17.55;40.64;101229.19;4913465;29;8833;-84
2022/03/11 21:11:46;;;;;;;;;14.25;12.75;;;;;17.54;40.51;101238.00;4915088;29;8793;-81
2022/03/11 21:14:12;;;;;;;;;16.00;15.25;;;;;17.53;40.62;101232.72;4914591;29;8828;-81
2022/03/11 21:16:38;;;;;;;;;21.25;16.75;;;;;17.55;40.51;101223.91;4914651;29;8832;-81
2022/03/11 21:19:04;;;;;;;;;16.25;13.50;;;;;17.55;40.40;101223.91;4916252;29;10261;-81
2022/03/11 21:21:34;;;;;;;;;13.50;11.75;;;;;17.52;40.41;101223.91;4922214;29;8807;-82
2022/03/11 21:24:00;;;;;;;;;13.00;13.00;;;;;17.53;40.76;101227.44;4920306;29;10246;-82
2022/03/11 21:26:25;;;;;;;;;17.75;16.25;;;;;17.53;40.51;101225.69;4919727;29;10262;-82
2022/03/11 21:28:54;;;;;;;;;15.25;13.50;;;;;17.52;40.66;101225.69;4909327;29;8937;-82